createdAt,value
2023-05-05T00:00:54.951Z,6.20
2023-05-05T00:01:57.489Z,6.33
2023-05-05T00:02:59.767Z,5.90
2023-05-05T00:04:04.247Z,6.03
2023-05-05T00:05:06.455Z,5.67
2023-05-05T00:06:09.006Z,6.33
2023-05-05T00:07:10.962Z,5.97
2023-05-05T00:08:12.587Z,5.20
2023-05-05T00:09:14.491Z,6.00
2023-05-05T00:10:16.100Z,5.60
2023-05-05T00:11:21.529Z,6.00
2023-05-05T00:12:23.664Z,6.23
2023-05-05T00:13:25.404Z,6.40
2023-05-05T00:14:27.394Z,5.80
2023-05-05T00:15:30.116Z,6.53
2023-05-05T00:16:31.897Z,6.13
2023-05-05T00:17:33.788Z,5.60
2023-05-05T00:18:36.148Z,5.37
2023-05-05T00:19:37.803Z,5.50
2023-05-05T00:20:43.241Z,5.80
2023-05-05T00:21:45.248Z,6.00
2023-05-05T00:22:48.542Z,6.53
2023-05-05T00:23:50.741Z,6.00
2023-05-05T00:24:53.829Z,6.80
2023-05-05T00:25:58.586Z,5.80
2023-05-05T00:27:00.242Z,5.87
2023-05-05T00:28:04.478Z,5.77
2023-05-05T00:29:08.708Z,6.13
2023-05-05T00:30:13.744Z,5.97
2023-05-05T00:31:16.790Z,6.63
2023-05-05T00:32:18.522Z,6.40
2023-05-05T00:33:20.380Z,5.87
2023-05-05T00:34:25.196Z,6.30
2023-05-05T00:35:27.417Z,6.20
2023-05-05T00:36:31.177Z,6.03
2023-05-05T00:37:34.032Z,6.03
2023-05-05T00:38:38.216Z,6.37
2023-05-05T00:39:40.212Z,6.50
2023-05-05T00:40:41.980Z,5.10
2023-05-05T00:41:43.545Z,6.67
2023-05-05T00:42:46.466Z,6.03
2023-05-05T00:43:48.883Z,5.70
2023-05-05T00:44:50.953Z,5.40
2023-05-05T00:46:02.748Z,6.00
2023-05-05T00:47:07.989Z,6.37
2023-05-05T00:48:10.477Z,5.40
2023-05-05T00:49:15.224Z,6.93
2023-05-05T00:50:22.901Z,6.30
2023-05-05T00:51:24.722Z,6.43
2023-05-05T00:52:27.335Z,6.40
2023-05-05T00:53:29.202Z,5.87
2023-05-05T00:54:31.163Z,6.07
2023-05-05T00:55:33.402Z,6.40
2023-05-05T00:56:35.271Z,6.10
2023-05-05T00:57:38.184Z,6.20
2023-05-05T00:58:44.103Z,6.57
2023-05-05T00:59:46.836Z,6.13
2023-05-05T01:00:48.948Z,7.13
2023-05-05T01:01:50.881Z,6.43
2023-05-05T01:02:53.718Z,6.17
2023-05-05T01:03:55.670Z,6.10
2023-05-05T01:04:58.571Z,6.70
2023-05-05T01:06:16.255Z,6.23
2023-05-05T01:07:33.754Z,6.40
2023-05-05T01:08:35.286Z,6.50
2023-05-05T01:09:57.977Z,6.13
2023-05-05T01:11:33.294Z,6.17
2023-05-05T01:12:50.963Z,5.83
2023-05-05T01:14:07.674Z,7.30
2023-05-05T01:15:12.557Z,6.23
2023-05-05T01:16:19.654Z,6.63
2023-05-05T01:17:24.733Z,6.60
2023-05-05T01:18:52.969Z,6.33
2023-05-05T01:20:11.077Z,6.80
2023-05-05T01:21:23.533Z,6.20
2023-05-05T01:22:30.267Z,6.60
2023-05-05T01:23:44.614Z,6.90
2023-05-05T01:25:06.841Z,6.03
2023-05-05T01:26:08.838Z,7.20
2023-05-05T01:27:22.911Z,6.30
2023-05-05T01:28:33.015Z,6.20
2023-05-05T01:29:41.763Z,6.40
2023-05-05T01:30:46.449Z,6.57
2023-05-05T01:31:53.229Z,6.50
2023-05-05T01:33:00.965Z,7.27
2023-05-05T01:34:06.519Z,6.80
2023-05-05T01:35:30.297Z,5.83
2023-05-05T01:36:36.580Z,7.00
2023-05-05T01:37:50.250Z,5.87
2023-05-05T01:38:57.367Z,6.90
2023-05-05T01:40:00.259Z,6.50
2023-05-05T01:41:14.686Z,6.50
2023-05-05T01:42:18.360Z,6.97
2023-05-05T01:43:21.870Z,7.07
2023-05-05T01:44:23.642Z,6.53
2023-05-05T01:45:27.974Z,6.60
2023-05-05T01:46:30.647Z,6.93
2023-05-05T01:47:32.905Z,6.53
2023-05-05T01:48:37.257Z,6.50
2023-05-05T01:49:39.763Z,6.80
2023-05-05T01:50:43.250Z,7.43
2023-05-05T01:51:46.408Z,6.80
2023-05-05T01:52:48.540Z,6.37
2023-05-05T01:53:53.769Z,7.23
2023-05-05T01:54:57.936Z,7.10
2023-05-05T01:56:00.409Z,7.50
2023-05-05T01:57:04.433Z,7.33
2023-05-05T01:58:07.829Z,6.80
2023-05-05T01:59:10.800Z,6.90
2023-05-05T02:00:14.351Z,7.20
2023-05-05T02:01:16.481Z,6.10
2023-05-05T02:02:21.876Z,7.60
2023-05-05T02:03:24.771Z,6.37
2023-05-05T02:04:29.539Z,7.97
2023-05-05T02:05:33.493Z,7.73
2023-05-05T02:06:35.713Z,7.73
2023-05-05T02:07:38.121Z,7.30
2023-05-05T02:08:40.369Z,6.03
2023-05-05T02:09:43.531Z,7.10
2023-05-05T02:10:46.313Z,7.47
2023-05-05T02:11:49.369Z,6.80
2023-05-05T02:12:52.373Z,7.20
2023-05-05T02:13:56.127Z,6.70
2023-05-05T02:15:00.328Z,7.00
2023-05-05T02:16:03.480Z,7.50
2023-05-05T02:17:05.366Z,7.10
2023-05-05T02:18:11.672Z,6.77
2023-05-05T02:19:14.440Z,8.20
2023-05-05T02:20:19.004Z,6.50
2023-05-05T02:21:21.186Z,7.17
2023-05-05T02:22:23.845Z,6.70
2023-05-05T02:23:25.927Z,7.10
2023-05-05T02:24:27.618Z,7.43
2023-05-05T02:25:38.402Z,7.80
2023-05-05T02:26:43.956Z,7.17
2023-05-05T02:27:46.728Z,7.10
2023-05-05T02:28:49.017Z,6.87
2023-05-05T02:29:53.510Z,6.83
2023-05-05T02:30:57.681Z,7.27
2023-05-05T02:32:02.526Z,7.30
2023-05-05T02:33:08.498Z,7.00
2023-05-05T02:34:10.996Z,7.63
2023-05-05T02:35:19.703Z,7.10
2023-05-05T02:36:22.621Z,6.93
2023-05-05T02:37:28.891Z,6.63
2023-05-05T02:38:31.543Z,7.07
2023-05-05T02:39:36.873Z,7.40
2023-05-05T02:40:43.671Z,6.33
2023-05-05T02:41:47.604Z,7.63
2023-05-05T02:42:50.088Z,6.87
2023-05-05T02:43:52.588Z,8.03
2023-05-05T02:44:55.595Z,7.33
2023-05-05T02:45:59.431Z,6.77
2023-05-05T02:47:02.607Z,7.03
2023-05-05T02:48:04.832Z,6.67
2023-05-05T02:49:07.221Z,6.93
2023-05-05T02:50:12.943Z,6.10
2023-05-05T02:51:14.884Z,6.50
2023-05-05T02:52:17.382Z,6.80
2023-05-05T02:53:26.065Z,7.00
2023-05-05T02:54:28.846Z,6.80
2023-05-05T02:55:40.434Z,6.40
2023-05-05T02:56:53.135Z,6.70
2023-05-05T02:58:07.181Z,6.50
2023-05-05T02:59:16.331Z,6.63
2023-05-05T03:00:24.025Z,6.37
2023-05-05T03:01:25.699Z,6.03
2023-05-05T03:02:29.914Z,6.60
2023-05-05T03:03:39.241Z,6.03
2023-05-05T03:04:45.256Z,6.70
2023-05-05T03:06:07.305Z,6.00
2023-05-05T03:07:16.966Z,6.37
2023-05-05T03:08:21.215Z,6.27
2023-05-05T03:09:40.227Z,6.50
2023-05-05T03:10:53.856Z,6.20
2023-05-05T03:11:55.639Z,6.17
2023-05-05T03:13:01.665Z,5.97
2023-05-05T03:14:14.402Z,6.40
2023-05-05T03:15:16.376Z,6.20
2023-05-05T03:16:18.789Z,6.40
2023-05-05T03:17:22.023Z,6.70
2023-05-05T03:18:25.252Z,7.20
2023-05-05T03:19:30.283Z,5.40
2023-05-05T03:20:32.757Z,6.20
2023-05-05T03:21:35.020Z,6.60
2023-05-05T03:22:38.002Z,6.50
2023-05-05T03:23:39.821Z,5.93
2023-05-05T03:24:41.648Z,7.10
2023-05-05T03:25:43.858Z,6.60
2023-05-05T03:26:47.035Z,6.73
2023-05-05T03:27:48.505Z,6.60
2023-05-05T03:28:51.886Z,6.10
2023-05-05T03:29:53.500Z,6.20
2023-05-05T03:30:55.449Z,6.30
2023-05-05T03:31:58.405Z,6.63
2023-05-05T03:33:00.921Z,6.30
2023-05-05T03:34:03.596Z,6.57
2023-05-05T03:35:06.929Z,6.30
2023-05-05T03:36:09.006Z,6.43
2023-05-05T03:37:10.850Z,5.10
2023-05-05T03:38:12.990Z,6.20
2023-05-05T03:39:16.211Z,7.37
2023-05-05T03:40:17.770Z,7.47
2023-05-05T03:41:20.460Z,6.93
2023-05-05T03:42:27.579Z,6.57
2023-05-05T03:43:29.515Z,6.93
2023-05-05T03:44:33.679Z,6.10
2023-05-05T03:45:35.447Z,6.90
2023-05-05T03:46:37.173Z,6.33
2023-05-05T03:47:41.279Z,6.07
2023-05-05T03:48:43.497Z,7.00
2023-05-05T03:49:49.448Z,6.63
2023-05-05T03:50:52.074Z,6.50
2023-05-05T03:51:54.267Z,6.10
2023-05-05T03:52:56.450Z,6.50
2023-05-05T03:53:58.553Z,5.73
2023-05-05T03:55:01.160Z,6.10
2023-05-05T03:56:03.300Z,5.73
2023-05-05T03:57:08.290Z,6.63
2023-05-05T03:58:10.250Z,7.07
2023-05-05T03:59:12.026Z,6.20
2023-05-05T04:00:14.347Z,6.83
2023-05-05T04:01:17.259Z,6.50
2023-05-05T04:02:19.697Z,6.67
2023-05-05T04:03:21.849Z,6.53
2023-05-05T04:04:24.088Z,6.17
2023-05-05T04:05:26.154Z,5.53
2023-05-05T04:06:28.274Z,6.90
2023-05-05T04:07:30.110Z,6.33
2023-05-05T04:08:31.862Z,6.30
2023-05-05T04:09:33.647Z,7.40
2023-05-05T04:10:35.620Z,7.40
2023-05-05T04:11:37.936Z,6.63
2023-05-05T04:12:43.597Z,6.57
2023-05-05T04:13:50.023Z,5.83
2023-05-05T04:14:54.111Z,6.60
2023-05-05T04:15:56.136Z,6.83
2023-05-05T04:16:59.931Z,7.17
2023-05-05T04:18:03.917Z,7.50
2023-05-05T04:19:06.034Z,7.97
2023-05-05T04:20:10.146Z,7.13
2023-05-05T04:21:16.181Z,6.83
2023-05-05T04:22:19.974Z,7.70
2023-05-05T04:23:22.115Z,6.57
2023-05-05T04:24:25.165Z,7.00
2023-05-05T04:25:27.160Z,7.83
2023-05-05T04:26:29.863Z,5.73
2023-05-05T04:27:32.961Z,8.00
2023-05-05T04:28:34.534Z,7.50
2023-05-05T04:29:40.207Z,6.43
2023-05-05T04:30:42.048Z,7.00
2023-05-05T04:31:48.825Z,7.10
2023-05-05T04:32:50.872Z,6.10
2023-05-05T04:33:52.587Z,5.97
2023-05-05T04:34:54.908Z,7.33
2023-05-05T04:35:56.848Z,6.23
2023-05-05T04:36:59.583Z,6.60
2023-05-05T04:38:02.878Z,6.00
2023-05-05T04:39:07.811Z,6.10
2023-05-05T04:40:09.875Z,6.90
2023-05-05T04:41:13.838Z,6.23
2023-05-05T04:42:15.882Z,6.77
2023-05-05T04:43:18.550Z,5.83
2023-05-05T04:44:21.316Z,5.93
2023-05-05T04:45:24.084Z,6.60
2023-05-05T04:46:27.714Z,6.47
2023-05-05T04:47:31.958Z,7.10
2023-05-05T04:48:35.117Z,6.50
2023-05-05T04:49:38.256Z,6.17
2023-05-05T04:50:40.088Z,6.60
2023-05-05T04:51:44.150Z,5.73
2023-05-05T04:52:46.421Z,6.47
2023-05-05T04:53:49.259Z,6.17
2023-05-05T04:54:51.171Z,6.40
2023-05-05T04:55:53.041Z,5.80
2023-05-05T04:56:56.111Z,6.00
2023-05-05T04:57:57.924Z,6.00
2023-05-05T04:59:01.829Z,6.70
2023-05-05T05:00:06.111Z,6.60
2023-05-05T05:01:07.977Z,6.50
2023-05-05T05:02:09.990Z,6.40
2023-05-05T05:03:12.699Z,5.60
2023-05-05T05:04:18.906Z,6.10
2023-05-05T05:05:23.250Z,6.10
2023-05-05T05:06:25.190Z,5.50
2023-05-05T05:07:27.130Z,5.90
2023-05-05T05:08:28.951Z,5.20
2023-05-05T05:09:33.865Z,5.80
2023-05-05T05:10:35.934Z,5.50
2023-05-05T05:11:37.579Z,5.10
2023-05-05T05:12:39.378Z,6.07
2023-05-05T05:13:43.359Z,5.40
2023-05-05T05:14:46.033Z,6.30
2023-05-05T05:15:48.492Z,5.90
2023-05-05T05:16:53.157Z,5.50
2023-05-05T05:17:55.950Z,6.63
2023-05-05T05:18:59.061Z,7.20
2023-05-05T05:20:05.956Z,6.20
2023-05-05T05:21:08.512Z,6.07
2023-05-05T05:22:13.717Z,5.90
2023-05-05T05:23:15.669Z,4.80
2023-05-05T05:24:20.835Z,6.40
2023-05-05T05:25:23.877Z,6.13
2023-05-05T05:26:26.535Z,5.63
2023-05-05T05:27:28.514Z,5.80
2023-05-05T05:28:30.264Z,6.13
2023-05-05T05:29:32.094Z,6.20
2023-05-05T05:30:33.864Z,6.10
2023-05-05T05:31:37.385Z,5.63
2023-05-05T05:32:41.448Z,5.03
2023-05-05T05:33:45.217Z,4.97
2023-05-05T05:34:47.047Z,5.77
2023-05-05T05:35:48.877Z,5.30
2023-05-05T05:36:53.849Z,5.70
2023-05-05T05:37:55.785Z,4.70
2023-05-05T05:38:59.017Z,5.20
2023-05-05T05:40:05.420Z,5.90
2023-05-05T05:41:07.925Z,5.40
2023-05-05T05:42:10.583Z,6.03
2023-05-05T05:43:12.594Z,4.97
2023-05-05T05:44:14.762Z,4.87
2023-05-05T05:45:17.639Z,4.80
2023-05-05T05:46:19.633Z,4.90
2023-05-05T05:47:21.317Z,5.37
2023-05-05T05:48:25.218Z,5.20
2023-05-05T05:49:28.529Z,5.27
2023-05-05T05:50:31.831Z,4.77
2023-05-05T05:51:33.950Z,5.13
2023-05-05T05:52:38.171Z,4.70
2023-05-05T05:53:40.674Z,4.80
2023-05-05T05:54:43.311Z,5.70
2023-05-05T05:55:46.264Z,4.70
2023-05-05T05:56:48.357Z,5.30
2023-05-05T05:57:49.950Z,4.70
2023-05-05T05:58:52.036Z,4.80
2023-05-05T05:59:55.093Z,5.10
2023-05-05T06:01:00.380Z,5.60
2023-05-05T06:02:02.655Z,4.60
2023-05-05T06:03:05.794Z,5.03
2023-05-05T06:04:08.890Z,5.80
2023-05-05T06:05:10.974Z,5.00
2023-05-05T06:06:12.867Z,5.03
2023-05-05T06:07:14.472Z,5.50
2023-05-05T06:08:16.326Z,5.43
2023-05-05T06:09:18.717Z,5.47
2023-05-05T06:11:28.642Z,5.10
2023-05-05T06:12:31.274Z,6.00
2023-05-05T06:13:32.882Z,5.10
2023-05-05T06:14:35.287Z,5.63
2023-05-05T06:15:38.143Z,5.03
2023-05-05T06:16:40.467Z,5.20
2023-05-05T06:17:45.175Z,5.63
2023-05-05T06:18:47.277Z,5.40
2023-05-05T06:19:50.465Z,5.40
2023-05-05T06:20:52.703Z,5.37
2023-05-05T06:21:57.222Z,5.70
2023-05-05T06:22:59.452Z,5.07
2023-05-05T06:24:05.130Z,5.20
2023-05-05T06:25:07.400Z,4.57
2023-05-05T06:26:10.208Z,4.87
2023-05-05T06:27:12.196Z,5.30
2023-05-05T06:28:17.259Z,5.20
2023-05-05T06:29:19.660Z,5.00
2023-05-05T06:30:21.885Z,4.77
2023-05-05T06:31:24.542Z,4.30
2023-05-05T06:32:32.654Z,4.33
2023-05-05T06:33:35.608Z,3.90
2023-05-05T06:34:39.706Z,4.80
2023-05-05T06:35:44.244Z,4.73
2023-05-05T06:36:48.817Z,3.70
2023-05-05T06:37:50.450Z,4.17
2023-05-05T06:38:54.146Z,4.63
2023-05-05T06:39:59.613Z,4.80
2023-05-05T06:41:03.139Z,4.00
2023-05-05T06:42:06.015Z,4.27
2023-05-05T06:43:08.209Z,4.57
2023-05-05T06:44:13.462Z,3.90
2023-05-05T06:45:15.248Z,4.00
2023-05-05T06:46:18.226Z,4.30
2023-05-05T06:47:24.074Z,4.13
2023-05-05T06:48:26.859Z,4.00
2023-05-05T06:49:31.828Z,4.13
2023-05-05T06:50:33.728Z,4.30
2023-05-05T06:51:36.901Z,3.53
2023-05-05T06:52:38.864Z,4.17
2023-05-05T06:53:44.193Z,4.70
2023-05-05T06:54:50.567Z,4.77
2023-05-05T06:55:53.440Z,4.50
2023-05-05T06:56:58.172Z,4.30
2023-05-05T06:58:06.684Z,4.30
2023-05-05T07:00:31.531Z,4.17
2023-05-05T07:01:33.582Z,4.30
2023-05-05T07:02:35.831Z,4.23
2023-05-05T07:03:39.154Z,4.73
2023-05-05T07:04:44.265Z,4.00
2023-05-05T07:05:46.670Z,4.30
2023-05-05T07:06:49.440Z,3.90
2023-05-05T07:07:55.561Z,4.00
2023-05-05T07:08:58.013Z,13.07
2023-05-05T07:09:59.798Z,8.20
2023-05-05T07:11:04.260Z,3.67
2023-05-05T07:12:07.396Z,3.50
2023-05-05T07:13:11.950Z,4.23
2023-05-05T07:14:16.738Z,3.77
2023-05-05T07:15:27.970Z,3.80
2023-05-05T07:16:34.851Z,3.70
2023-05-05T07:17:36.730Z,4.13
2023-05-05T07:18:39.053Z,3.57
2023-05-05T07:19:41.325Z,3.20
2023-05-05T07:20:50.012Z,3.40
2023-05-05T07:21:52.261Z,3.63
2023-05-05T07:22:55.399Z,3.30
2023-05-05T07:23:57.188Z,3.50
2023-05-05T07:25:00.405Z,3.60
2023-05-05T07:26:03.964Z,3.27
2023-05-05T07:27:07.317Z,3.70
2023-05-05T07:28:09.861Z,3.40
2023-05-05T07:29:11.655Z,3.37
2023-05-05T07:30:16.526Z,4.47
2023-05-05T07:31:22.357Z,3.90
2023-05-05T07:32:25.612Z,3.90
2023-05-05T07:33:30.764Z,3.80
2023-05-05T07:34:34.708Z,3.60
2023-05-05T07:35:40.722Z,3.60
2023-05-05T07:36:42.763Z,4.27
2023-05-05T07:37:45.129Z,4.03
2023-05-05T07:38:48.337Z,3.60
2023-05-05T07:39:53.044Z,3.57
2023-05-05T07:40:55.774Z,3.23
2023-05-05T07:41:57.555Z,3.60
2023-05-05T07:43:00.470Z,3.43
2023-05-05T07:44:04.917Z,3.43
2023-05-05T07:45:10.396Z,3.57
2023-05-05T07:46:13.159Z,2.53
2023-05-05T07:47:15.814Z,2.83
2023-05-05T07:48:17.712Z,2.53
2023-05-05T07:49:21.156Z,2.90
2023-05-05T07:50:23.701Z,3.40
2023-05-05T07:51:25.851Z,3.30
2023-05-05T07:52:45.170Z,3.30
2023-05-05T07:53:53.861Z,3.40
2023-05-05T07:54:59.831Z,2.97
2023-05-05T07:56:06.582Z,2.97
2023-05-05T07:57:08.524Z,3.30
2023-05-05T07:58:14.364Z,3.07
2023-05-05T07:59:19.912Z,3.37
2023-05-05T08:00:21.915Z,2.70
2023-05-05T08:01:23.704Z,2.23
2023-05-05T08:02:26.089Z,2.10
2023-05-05T08:03:28.162Z,2.57
2023-05-05T08:04:31.141Z,2.10
2023-05-05T08:05:32.827Z,1.40
2023-05-05T08:06:34.933Z,1.90
2023-05-05T08:07:41.622Z,1.73
2023-05-05T08:08:43.728Z,1.83
2023-05-05T08:09:45.454Z,1.80
2023-05-05T08:10:47.562Z,1.80
2023-05-05T08:11:49.514Z,1.80
2023-05-05T08:12:51.463Z,1.40
2023-05-05T08:13:57.144Z,2.43
2023-05-05T08:14:58.859Z,2.67
2023-05-05T08:16:00.677Z,1.73
2023-05-05T08:17:02.917Z,2.00
2023-05-05T08:18:08.428Z,1.40
2023-05-05T08:19:21.213Z,1.70
2023-05-05T08:20:30.270Z,1.80
2023-05-05T08:21:32.197Z,1.40
2023-05-05T08:22:33.935Z,1.30
2023-05-05T08:23:36.468Z,1.60
2023-05-05T08:24:39.128Z,1.87
2023-05-05T08:25:41.415Z,1.60
2023-05-05T08:26:43.821Z,1.90
2023-05-05T08:27:47.375Z,1.50
2023-05-05T08:28:49.352Z,1.77
2023-05-05T08:29:54.358Z,1.93
2023-05-05T08:30:58.846Z,2.30
2023-05-05T08:32:00.882Z,1.50
2023-05-05T08:33:03.502Z,1.53
2023-05-05T08:34:08.929Z,1.53
2023-05-05T08:35:11.143Z,1.60
2023-05-05T08:36:18.144Z,1.70
2023-05-05T08:37:21.606Z,1.87
2023-05-05T08:38:23.983Z,1.70
2023-05-05T08:39:25.836Z,1.70
2023-05-05T08:40:32.481Z,1.60
2023-05-05T08:41:34.511Z,1.50
2023-05-05T08:42:38.790Z,1.27
2023-05-05T08:43:43.398Z,1.47
2023-05-05T08:44:45.191Z,1.40
2023-05-05T08:45:47.234Z,1.50
2023-05-05T08:46:50.392Z,1.90
2023-05-05T08:47:51.997Z,1.60
2023-05-05T08:48:55.918Z,1.50
2023-05-05T08:50:00.071Z,1.67
2023-05-05T08:51:08.785Z,1.40
2023-05-05T08:52:11.920Z,1.50
2023-05-05T08:53:18.050Z,1.40
2023-05-05T08:54:22.997Z,1.70
2023-05-05T08:55:26.907Z,1.53
2023-05-05T08:56:38.167Z,1.67
2023-05-05T08:57:51.694Z,1.63
2023-05-05T08:58:54.185Z,1.77
2023-05-05T08:59:56.516Z,2.10
2023-05-05T09:01:02.106Z,1.87
2023-05-05T09:02:06.327Z,1.50
2023-05-05T09:03:09.715Z,1.53
2023-05-05T09:04:12.205Z,1.97
2023-05-05T09:05:18.626Z,2.33
2023-05-05T09:06:21.575Z,1.63
2023-05-05T09:07:23.670Z,1.60
2023-05-05T09:08:26.891Z,1.70
2023-05-05T09:09:31.851Z,2.50
2023-05-05T09:10:34.807Z,1.80
2023-05-05T09:11:36.866Z,1.67
2023-05-05T09:12:42.463Z,1.80
2023-05-05T09:13:45.640Z,1.83
2023-05-05T09:14:49.595Z,2.53
2023-05-05T09:15:51.241Z,2.70
2023-05-05T09:16:55.788Z,2.63
2023-05-05T09:17:58.853Z,2.10
2023-05-05T09:19:07.468Z,2.40
2023-05-05T09:20:12.879Z,1.90
2023-05-05T09:21:28.241Z,1.80
2023-05-05T09:22:33.375Z,1.57
2023-05-05T09:23:35.177Z,2.13
2023-05-05T09:24:37.493Z,2.10
2023-05-05T09:25:39.745Z,1.77
2023-05-05T09:26:47.300Z,1.67
2023-05-05T09:27:49.656Z,1.87
2023-05-05T09:28:55.885Z,3.07
2023-05-05T09:29:59.222Z,2.13
2023-05-05T09:31:16.453Z,1.97
2023-05-05T09:32:19.365Z,2.10
2023-05-05T09:33:33.661Z,1.70
2023-05-05T09:34:38.407Z,1.83
2023-05-05T09:35:49.052Z,2.07
2023-05-05T09:36:52.064Z,2.50
2023-05-05T09:37:55.994Z,3.73
2023-05-05T09:39:07.565Z,2.83
2023-05-05T09:40:09.724Z,2.37
2023-05-05T09:41:13.356Z,3.20
2023-05-05T09:42:20.136Z,2.40
2023-05-05T09:43:24.478Z,2.30
2023-05-05T09:44:36.185Z,1.90
2023-05-05T09:45:38.118Z,1.83
2023-05-05T09:46:52.352Z,1.90
2023-05-05T09:47:59.052Z,1.63
2023-05-05T09:49:16.422Z,1.60
2023-05-05T09:50:19.198Z,2.30
2023-05-05T09:51:28.973Z,2.10
2023-05-05T09:52:31.184Z,1.77
2023-05-05T09:53:44.004Z,1.70
2023-05-05T09:54:54.064Z,1.60
2023-05-05T09:56:04.014Z,1.57
2023-05-05T09:57:07.377Z,2.10
2023-05-05T09:58:20.103Z,1.77
2023-05-05T09:59:23.165Z,2.10
2023-05-05T10:00:37.894Z,1.73
2023-05-05T10:01:44.332Z,1.80
2023-05-05T10:02:46.630Z,1.50
2023-05-05T10:03:54.138Z,2.20
2023-05-05T10:05:22.292Z,1.87
2023-05-05T10:06:47.827Z,1.97
2023-05-05T10:07:53.946Z,2.10
2023-05-05T10:09:03.067Z,3.00
2023-05-05T10:10:12.255Z,2.80
2023-05-05T10:11:14.564Z,1.90
2023-05-05T10:12:16.168Z,2.10
2023-05-05T10:13:21.265Z,2.60
2023-05-05T10:14:26.449Z,1.87
2023-05-05T10:15:30.882Z,1.67
2023-05-05T10:16:36.016Z,1.90
2023-05-05T10:18:02.471Z,1.80
2023-05-05T10:19:09.374Z,2.30
2023-05-05T10:20:15.062Z,1.90
2023-05-05T10:21:18.943Z,2.07
2023-05-05T10:22:23.735Z,1.80
2023-05-05T10:23:35.834Z,1.50
2023-05-05T10:24:48.050Z,1.80
2023-05-05T10:25:55.734Z,1.80
2023-05-05T10:26:59.157Z,1.80
2023-05-05T10:28:06.468Z,2.53
2023-05-05T10:29:30.018Z,1.80
2023-05-05T10:30:32.810Z,1.37
2023-05-05T10:31:41.984Z,2.00
2023-05-05T10:32:59.914Z,1.70
2023-05-05T10:34:14.209Z,1.73
2023-05-05T10:35:17.799Z,1.70
2023-05-05T10:36:22.037Z,1.63
2023-05-05T10:37:26.359Z,1.90
2023-05-05T10:38:32.357Z,1.80
2023-05-05T10:39:38.025Z,1.40
2023-05-05T10:40:47.197Z,1.90
2023-05-05T10:41:50.396Z,1.47
2023-05-05T10:42:55.773Z,1.37
2023-05-05T10:43:59.634Z,2.00
2023-05-05T10:45:03.424Z,1.43
2023-05-05T10:46:11.680Z,1.70
2023-05-05T10:47:14.756Z,1.70
2023-05-05T10:48:21.875Z,2.20
2023-05-05T10:49:41.740Z,2.20
2023-05-05T10:50:50.689Z,1.67
2023-05-05T10:52:10.458Z,1.30
2023-05-05T10:53:32.135Z,1.60
2023-05-05T10:54:43.073Z,2.57
2023-05-05T10:55:49.555Z,1.77
2023-05-05T10:56:52.313Z,1.80
2023-05-05T10:57:54.910Z,2.00
2023-05-05T10:59:00.808Z,1.70
2023-05-05T11:00:03.808Z,1.90
2023-05-05T11:01:28.321Z,1.97
2023-05-05T11:02:32.541Z,1.53
2023-05-05T11:03:35.539Z,2.20
2023-05-05T11:04:41.360Z,2.03
2023-05-05T11:06:02.182Z,1.80
2023-05-05T11:07:13.412Z,1.40
2023-05-05T11:08:27.236Z,2.10
2023-05-05T11:09:31.893Z,2.77
2023-05-05T11:10:44.158Z,2.00
2023-05-05T11:12:01.993Z,2.27
2023-05-05T11:13:03.673Z,2.43
2023-05-05T11:14:24.829Z,3.10
2023-05-05T11:15:27.217Z,2.53
2023-05-05T11:16:44.154Z,2.80
2023-05-05T11:17:49.394Z,2.57
2023-05-05T11:18:51.581Z,1.93
2023-05-05T11:20:01.457Z,1.80
2023-05-05T11:21:15.719Z,2.80
2023-05-05T11:22:19.132Z,1.90
2023-05-05T11:23:20.804Z,2.63
2023-05-05T11:24:31.356Z,2.20
2023-05-05T11:25:37.198Z,2.13
2023-05-05T11:26:52.487Z,2.60
2023-05-05T11:28:10.612Z,2.30
2023-05-05T11:29:12.752Z,2.33
2023-05-05T11:30:15.674Z,2.30
2023-05-05T11:31:19.272Z,2.70
2023-05-05T11:32:21.233Z,1.80
2023-05-05T11:33:23.708Z,1.77
2023-05-05T11:34:29.662Z,2.10
2023-05-05T11:35:59.889Z,2.80
2023-05-05T11:37:03.275Z,2.60
2023-05-05T11:38:07.085Z,2.37
2023-05-05T11:39:13.195Z,2.73
2023-05-05T11:40:24.184Z,3.23
2023-05-05T11:41:34.815Z,2.40
2023-05-05T11:42:36.492Z,2.30
2023-05-05T11:43:38.712Z,2.50
2023-05-05T11:44:41.363Z,2.53
2023-05-05T11:45:43.846Z,2.13
2023-05-05T11:46:52.226Z,2.07
2023-05-05T11:48:14.954Z,1.80
2023-05-05T11:49:29.721Z,2.60
2023-05-05T11:50:33.380Z,2.97
2023-05-05T11:51:35.465Z,4.00
2023-05-05T11:52:39.199Z,2.20
2023-05-05T11:53:44.278Z,3.30
2023-05-05T11:54:50.899Z,2.67
2023-05-05T11:56:07.596Z,1.90
2023-05-05T11:57:11.435Z,2.27
2023-05-05T11:58:19.986Z,2.50
2023-05-05T11:59:23.962Z,1.77
2023-05-05T12:00:32.187Z,2.20
2023-05-05T12:01:33.827Z,2.00
2023-05-05T12:02:36.514Z,2.20
2023-05-05T12:03:38.701Z,2.30
2023-05-05T12:04:40.433Z,2.00
2023-05-05T12:05:42.385Z,2.07
2023-05-05T12:06:45.325Z,2.13
2023-05-05T12:07:47.886Z,2.17
2023-05-05T12:08:51.010Z,1.70
2023-05-05T12:09:54.024Z,2.30
2023-05-05T12:11:05.371Z,2.30
2023-05-05T12:12:08.040Z,1.83
2023-05-05T12:13:20.120Z,2.17
2023-05-05T12:14:22.299Z,1.77
2023-05-05T12:15:33.507Z,1.80
2023-05-05T12:16:35.127Z,2.20
2023-05-05T12:17:41.155Z,1.63
2023-05-05T12:18:42.850Z,2.03
2023-05-05T12:19:47.480Z,1.90
2023-05-05T12:20:49.308Z,2.20
2023-05-05T12:21:50.842Z,2.13
2023-05-05T12:22:59.053Z,2.13
2023-05-05T12:24:01.012Z,2.37
2023-05-05T12:25:04.193Z,1.90
2023-05-05T12:26:06.256Z,1.87
2023-05-05T12:27:11.808Z,2.00
2023-05-05T12:28:13.649Z,1.60
2023-05-05T12:29:23.722Z,1.87
2023-05-05T12:30:25.377Z,2.20
2023-05-05T12:31:40.008Z,2.57
2023-05-05T12:32:42.292Z,1.70
2023-05-05T12:33:45.264Z,1.97
2023-05-05T12:34:47.656Z,2.30
2023-05-05T12:35:51.045Z,2.20
2023-05-05T12:36:53.195Z,1.83
2023-05-05T12:37:55.158Z,2.00
2023-05-05T12:38:56.955Z,2.27
2023-05-05T12:39:58.707Z,2.00
2023-05-05T12:41:00.549Z,2.00
2023-05-05T12:42:05.041Z,1.80
2023-05-05T12:43:06.567Z,1.57
2023-05-05T12:44:08.341Z,2.53
2023-05-05T12:45:17.568Z,2.40
2023-05-05T12:46:19.380Z,3.10
2023-05-05T12:47:33.601Z,2.30
2023-05-05T12:48:36.620Z,2.47
2023-05-05T12:49:44.993Z,2.40
2023-05-05T12:50:46.604Z,2.40
2023-05-05T12:51:55.061Z,1.80
2023-05-05T12:52:56.792Z,3.57
2023-05-05T12:54:05.711Z,2.27
2023-05-05T12:55:07.856Z,3.07
2023-05-05T12:56:29.142Z,3.43
2023-05-05T12:57:30.714Z,2.73
2023-05-05T12:58:50.422Z,2.13
2023-05-05T12:59:53.003Z,2.27
2023-05-05T13:01:10.851Z,2.53
2023-05-05T13:02:12.584Z,1.67
2023-05-05T13:03:20.521Z,2.50
2023-05-05T13:04:26.139Z,1.80
2023-05-05T13:05:34.219Z,1.87
2023-05-05T13:06:36.295Z,1.70
2023-05-05T13:07:49.653Z,2.13
2023-05-05T13:08:52.212Z,2.00
2023-05-05T13:10:06.469Z,1.73
2023-05-05T13:11:08.223Z,1.80
2023-05-05T13:12:13.241Z,1.73
2023-05-05T13:13:14.975Z,1.37
2023-05-05T13:14:16.653Z,1.80
2023-05-05T13:15:18.492Z,2.20
2023-05-05T13:16:20.100Z,2.03
2023-05-05T13:17:21.742Z,1.60
2023-05-05T13:18:23.414Z,1.63
2023-05-05T13:19:25.161Z,2.27
2023-05-05T13:20:27.263Z,1.97
2023-05-05T13:21:28.959Z,1.60
2023-05-05T13:22:31.106Z,1.50
2023-05-05T13:23:33.492Z,2.00
2023-05-05T13:24:49.747Z,1.63
2023-05-05T13:25:53.584Z,1.83
2023-05-05T13:26:55.935Z,1.60
2023-05-05T13:27:58.662Z,2.10
2023-05-05T13:29:00.976Z,1.60
2023-05-05T13:30:02.877Z,2.13
2023-05-05T13:31:04.699Z,1.47
2023-05-05T13:32:06.826Z,1.70
2023-05-05T13:33:08.586Z,1.93
2023-05-05T13:34:10.931Z,1.77
2023-05-05T13:35:15.459Z,1.67
2023-05-05T13:36:17.901Z,1.47
2023-05-05T13:37:19.938Z,1.77
2023-05-05T13:38:21.713Z,1.60
2023-05-05T13:39:23.379Z,1.40
2023-05-05T13:40:26.058Z,1.27
2023-05-05T13:41:27.824Z,1.87
2023-05-05T13:42:29.706Z,2.00
2023-05-05T13:43:31.410Z,2.20
2023-05-05T13:44:33.095Z,1.63
2023-05-05T13:45:34.718Z,1.80
2023-05-05T13:46:36.316Z,1.63
2023-05-05T13:47:38.218Z,1.63
2023-05-05T13:48:42.255Z,1.87
2023-05-05T13:49:44.177Z,1.90
2023-05-05T13:50:46.747Z,1.53
2023-05-05T13:51:48.428Z,1.40
2023-05-05T13:52:50.169Z,1.27
2023-05-05T13:53:52.546Z,1.60
2023-05-05T13:54:54.647Z,1.70
2023-05-05T13:55:57.238Z,1.73
2023-05-05T13:56:59.068Z,1.37
2023-05-05T13:58:00.824Z,1.45
2023-05-05T13:59:02.640Z,1.48
2023-05-05T14:00:04.578Z,1.37
2023-05-05T14:01:06.379Z,1.27
2023-05-05T14:02:11.515Z,1.57
2023-05-05T14:03:13.575Z,1.60
2023-05-05T14:04:16.066Z,1.50
2023-05-05T14:05:18.106Z,1.53
2023-05-05T14:06:20.176Z,1.93
2023-05-05T14:07:22.240Z,1.53
2023-05-05T14:08:24.118Z,1.50
2023-05-05T14:09:26.000Z,1.80
2023-05-05T14:10:30.403Z,1.30
2023-05-05T14:11:31.993Z,1.70
2023-05-05T14:12:33.713Z,1.50
2023-05-05T14:13:35.386Z,1.53
2023-05-05T14:14:37.225Z,1.63
2023-05-05T14:15:39.049Z,1.40
2023-05-05T14:16:40.645Z,1.67
2023-05-05T14:17:42.462Z,1.70
2023-05-05T14:18:43.982Z,1.60
2023-05-05T14:19:45.723Z,1.67
2023-05-05T14:20:47.897Z,1.50
2023-05-05T14:21:49.720Z,1.37
2023-05-05T14:22:52.534Z,1.90
2023-05-05T14:23:54.446Z,1.90
2023-05-05T14:24:56.021Z,2.33